Time;durP1;ratioP1;P1;durP2;ratioP2;P2;SDS_P1;SDS_P2;PMS_P1;PMS_P2;Temp;Humidity;BMP_temperature;BMP_pressure;BME280_temperature;BME280_humidity;BME280_pressure;Samples;Min_cycle;Max_cycle;Signal;HPM_P1;HPM_P2
2022/10/18 00:00:26;;;;;;;20.70;9.67;;;16.00;92.40;;;;;;5030969;28;20185;-70
2022/10/18 00:02:51;;;;;;;23.00;9.00;;;16.00;92.70;;;;;;5025830;28;20196;-72
2022/10/18 00:05:17;;;;;;;24.43;11.90;;;16.00;92.70;;;;;;5029227;28;20185;-72
2022/10/18 00:07:43;;;;;;;14.27;7.60;;;16.00;92.70;;;;;;5022149;28;20232;-72
2022/10/18 00:10:09;;;;;;;16.53;7.17;;;16.00;92.60;;;;;;5030649;28;20235;-71
2022/10/18 00:12:36;;;;;;;10.27;6.23;;;16.00;92.80;;;;;;5030013;28;20184;-71
2022/10/18 00:15:03;;;;;;;11.73;6.40;;;16.00;92.70;;;;;;5030745;28;20435;-71
2022/10/18 00:17:29;;;;;;;12.73;6.10;;;15.90;92.70;;;;;;5027016;28;20541;-71
2022/10/18 00:19:54;;;;;;;15.30;6.27;;;16.00;92.80;;;;;;5029094;28;20436;-73
2022/10/18 00:22:20;;;;;;;15.13;6.13;;;16.00;92.60;;;;;;5029911;28;20192;-72
2022/10/18 00:24:46;;;;;;;12.63;6.60;;;16.00;92.60;;;;;;5030305;28;20575;-70
2022/10/18 00:27:11;;;;;;;12.27;5.87;;;16.00;92.60;;;;;;5026420;28;20219;-72
2022/10/18 00:29:37;;;;;;;11.80;5.70;;;15.80;92.70;;;;;;5027845;28;20231;-71
2022/10/18 00:32:03;;;;;;;10.80;5.87;;;15.80;92.90;;;;;;5028789;28;20180;-71
2022/10/18 00:34:28;;;;;;;17.70;6.80;;;15.80;93.00;;;;;;5028259;28;20178;-73
2022/10/18 00:36:54;;;;;;;10.07;5.57;;;15.70;92.70;;;;;;5023779;28;20198;-72
2022/10/18 00:39:20;;;;;;;9.23;5.60;;;15.70;92.50;;;;;;5029900;28;20184;-71
2022/10/18 00:41:47;;;;;;;13.40;6.30;;;15.70;92.30;;;;;;5028232;28;20642;-72
2022/10/18 00:44:16;;;;;;;16.17;7.03;;;15.70;92.20;;;;;;5024852;28;20955;-71
2022/10/18 00:46:44;;;;;;;10.57;6.63;;;15.60;92.10;;;;;;5022168;28;20474;-71
2022/10/18 00:49:15;;;;;;;7.80;5.50;;;15.60;92.30;;;;;;5025201;28;20511;-71
2022/10/18 00:52:02;;;;;;;10.00;6.13;;;15.60;92.30;;;;;;5029814;28;20526;-70
2022/10/18 00:54:30;;;;;;;7.97;4.80;;;15.70;92.20;;;;;;5025731;28;20526;-70
2022/10/18 00:56:56;;;;;;;15.23;6.47;;;15.80;92.20;;;;;;5027589;28;20463;-71
2022/10/18 00:59:23;;;;;;;15.67;6.13;;;15.90;92.10;;;;;;5031884;28;20474;-71
2022/10/18 01:01:48;;;;;;;11.50;5.67;;;15.90;92.00;;;;;;5025712;28;20637;-71
2022/10/18 01:04:15;;;;;;;12.63;5.80;;;16.00;91.90;;;;;;5027409;28;20505;-71
2022/10/18 01:07:01;;;;;;;9.70;6.00;;;16.00;91.70;;;;;;5027640;28;20231;-71
2022/10/18 01:09:37;;;;;;;12.27;6.03;;;16.00;91.50;;;;;;5030836;28;20533;-73
2022/10/18 01:12:44;;;;;;;11.80;6.30;;;15.90;91.40;;;;;;5031141;28;20769;-71
2022/10/18 01:15:35;;;;;;;9.80;5.23;;;16.00;91.20;;;;;;4974625;28;20501;-71
2022/10/18 01:18:10;;;;;;;9.63;5.67;;;16.00;91.00;;;;;;5021641;28;20470;-72
2022/10/18 01:20:54;;;;;;;10.23;5.60;;;16.00;90.90;;;;;;5028601;28;21000;-70
2022/10/18 01:23:53;;;;;;;8.97;5.23;;;16.00;90.70;;;;;;5027508;28;20431;-71
2022/10/18 01:26:34;;;;;;;7.40;5.10;;;16.10;90.60;;;;;;5021408;28;21698;-71
2022/10/18 01:29:20;;;;;;;15.07;5.93;;;16.10;90.40;;;;;;5029403;28;20534;-71
2022/10/18 01:31:59;;;;;;;13.70;5.10;;;16.00;90.60;;;;;;5026315;28;20414;-70
2022/10/18 01:34:27;;;;;;;10.60;5.23;;;16.10;90.60;;;;;;5023789;28;20932;-71
2022/10/18 01:36:55;;;;;;;8.87;5.27;;;16.20;90.40;;;;;;5016727;28;20470;-70
2022/10/18 01:39:26;;;;;;;8.50;5.40;;;16.20;90.00;;;;;;5025705;28;20515;-71
2022/10/18 01:41:54;;;;;;;11.03;4.93;;;16.30;89.60;;;;;;5022103;28;20502;-70
2022/10/18 01:44:25;;;;;;;11.03;4.73;;;16.40;89.20;;;;;;5026625;28;20836;-70
2022/10/18 01:46:53;;;;;;;10.93;5.23;;;16.40;88.90;;;;;;5015086;28;20493;-72
2022/10/18 01:49:19;;;;;;;8.30;5.30;;;16.50;88.70;;;;;;5028973;28;21223;-71
2022/10/18 01:51:45;;;;;;;10.33;5.93;;;16.40;88.90;;;;;;5028513;28;20477;-71
2022/10/18 01:54:14;;;;;;;8.20;5.30;;;16.30;89.30;;;;;;5027398;28;20234;-69
2022/10/18 01:57:09;;;;;;;8.40;5.00;;;16.40;89.60;;;;;;5024603;28;20202;-71
2022/10/18 02:00:00;;;;;;;11.50;5.40;;;16.40;89.50;;;;;;5021116;28;20506;-71
2022/10/18 02:02:37;;;;;;;10.43;5.00;;;16.40;88.90;;;;;;5028019;28;20478;-71
2022/10/18 02:05:17;;;;;;;11.73;5.87;;;16.50;87.40;;;;;;5023404;28;20411;-72
2022/10/18 02:08:00;;;;;;;9.47;5.77;;;16.50;88.10;;;;;;5024700;28;21032;-72
2022/10/18 02:10:37;;;;;;;12.37;6.20;;;16.60;88.10;;;;;;5027361;28;20466;-70
2022/10/18 02:13:03;;;;;;;10.80;5.77;;;16.50;89.30;;;;;;5026200;28;20870;-71
2022/10/18 02:15:34;;;;;;;15.50;7.67;;;16.40;90.00;;;;;;5027296;28;20515;-72
2022/10/18 02:18:04;;;;;;;11.30;5.60;;;16.40;90.20;;;;;;5026224;28;20212;-71
2022/10/18 02:20:31;;;;;;;17.77;6.00;;;16.40;90.30;;;;;;5027546;28;20565;-70
2022/10/18 02:22:59;;;;;;;18.70;6.87;;;16.50;90.30;;;;;;5026972;28;20436;-71
2022/10/18 02:25:27;;;;;;;10.13;6.00;;;16.50;90.10;;;;;;5025075;28;20423;-72
2022/10/18 02:27:54;;;;;;;10.93;5.77;;;16.50;89.90;;;;;;5022772;28;20850;-73
2022/10/18 02:30:25;;;;;;;9.83;5.70;;;16.60;89.90;;;;;;5032668;28;20431;-70
2022/10/18 02:33:03;;;;;;;14.80;6.73;;;16.70;89.70;;;;;;5032415;28;20415;-72
2022/10/18 02:35:34;;;;;;;9.03;5.73;;;16.70;89.50;;;;;;5036862;28;20453;-71
2022/10/18 02:38:01;;;;;;;12.93;6.00;;;16.70;89.00;;;;;;5039872;28;20538;-71
2022/10/18 02:40:26;;;;;;;13.70;5.77;;;16.80;89.00;;;;;;5047690;28;20453;-72
2022/10/18 02:42:57;;;;;;;13.20;6.57;;;16.80;88.90;;;;;;5029422;28;21362;-72
2022/10/18 02:45:24;;;;;;;22.20;6.90;;;16.70;88.90;;;;;;5025705;28;20197;-73
2022/10/18 02:47:49;;;;;;;14.03;6.27;;;16.60;88.60;;;;;;5028119;28;20558;-72
2022/10/18 02:50:16;;;;;;;10.70;5.77;;;16.50;88.40;;;;;;5029801;28;20511;-72
2022/10/18 02:52:41;;;;;;;12.77;6.97;;;16.60;88.00;;;;;;5032576;28;20412;-71
2022/10/18 02:55:07;;;;;;;8.10;5.97;;;16.60;87.80;;;;;;5032817;28;20424;-71
2022/10/18 02:57:33;;;;;;;8.93;6.07;;;16.60;88.30;;;;;;5029621;28;20718;-73
2022/10/18 02:59:59;;;;;;;11.60;5.33;;;16.70;88.30;;;;;;5031848;28;20424;-71
2022/10/18 03:02:25;;;;;;;8.47;5.37;;;16.70;88.30;;;;;;5029654;28;20244;-72
2022/10/18 03:04:50;;;;;;;10.30;5.20;;;16.70;88.40;;;;;;5031494;28;20675;-71
2022/10/18 03:07:16;;;;;;;12.00;6.10;;;16.70;88.40;;;;;;5025610;28;20471;-71
2022/10/18 03:09:41;;;;;;;10.67;6.40;;;16.70;88.30;;;;;;5030453;28;20218;-71
2022/10/18 03:12:07;;;;;;;12.80;5.20;;;16.70;88.30;;;;;;5036654;28;20652;-71
2022/10/18 03:14:33;;;;;;;9.10;5.13;;;16.70;88.00;;;;;;5038541;28;20254;-70
2022/10/18 03:16:58;;;;;;;11.10;5.63;;;16.70;87.80;;;;;;5034087;28;20209;-72
2022/10/18 03:19:24;;;;;;;9.00;5.10;;;16.70;87.60;;;;;;5034016;28;20241;-71
2022/10/18 03:21:50;;;;;;;9.13;5.33;;;16.80;87.40;;;;;;5027817;28;20765;-72
2022/10/18 03:24:15;;;;;;;9.77;5.23;;;16.70;87.40;;;;;;5030532;28;20658;-70
2022/10/18 03:26:41;;;;;;;16.57;6.00;;;16.70;87.70;;;;;;5027275;28;20236;-70
2022/10/18 03:29:08;;;;;;;11.80;6.10;;;16.60;87.80;;;;;;5031503;28;20202;-71
2022/10/18 03:31:33;;;;;;;9.63;5.27;;;16.60;88.40;;;;;;5030976;28;20181;-72
2022/10/18 03:33:59;;;;;;;11.70;5.87;;;16.50;88.60;;;;;;5026054;28;20427;-71
2022/10/18 03:36:24;;;;;;;12.27;5.97;;;16.60;88.10;;;;;;5025088;28;20299;-72
2022/10/18 03:38:50;;;;;;;13.93;5.30;;;16.50;87.80;;;;;;5031140;28;20218;-74
2022/10/18 03:41:15;;;;;;;9.97;5.93;;;16.60;88.00;;;;;;5030625;28;20264;-71
2022/10/18 03:43:41;;;;;;;9.80;4.90;;;16.50;88.10;;;;;;5030869;28;20184;-71
2022/10/18 03:46:07;;;;;;;11.40;5.23;;;16.60;87.80;;;;;;5026290;28;20689;-71
2022/10/18 03:48:32;;;;;;;10.70;5.70;;;16.60;87.60;;;;;;5027416;28;20266;-69
2022/10/18 03:50:58;;;;;;;11.67;5.70;;;16.60;87.10;;;;;;5030237;28;20185;-72
2022/10/18 03:53:23;;;;;;;10.50;4.97;;;16.70;86.90;;;;;;5029239;28;20184;-70
2022/10/18 03:55:53;;;;;;;13.97;5.80;;;16.70;86.80;;;;;;5028868;28;20194;-71
2022/10/18 03:58:19;;;;;;;8.60;4.47;;;16.70;86.20;;;;;;5026176;28;21014;-71
2022/10/18 04:00:47;;;;;;;8.43;4.27;;;16.70;86.20;;;;;;5028279;28;20424;-73
2022/10/18 04:03:13;;;;;;;7.70;4.13;;;16.70;86.00;;;;;;5025651;28;20438;-71
2022/10/18 04:05:39;;;;;;;8.67;4.10;;;16.70;85.70;;;;;;5030321;28;20428;-73
2022/10/18 04:08:04;;;;;;;8.10;4.07;;;16.70;85.70;;;;;;5027491;28;20217;-72
2022/10/18 04:10:30;;;;;;;9.50;4.63;;;16.80;85.50;;;;;;5028050;28;20181;-72
2022/10/18 04:12:55;;;;;;;6.73;4.97;;;16.90;85.20;;;;;;5032345;28;20548;-72
2022/10/18 04:15:21;;;;;;;8.47;5.10;;;16.80;85.00;;;;;;5031479;28;20212;-72
2022/10/18 04:17:46;;;;;;;8.90;4.73;;;16.90;85.00;;;;;;5028399;28;20205;-72
2022/10/18 04:20:12;;;;;;;8.90;4.30;;;16.90;84.90;;;;;;5031367;28;20189;-72
2022/10/18 04:22:38;;;;;;;19.70;4.87;;;16.80;85.00;;;;;;5029916;28;20666;-72
2022/10/18 04:25:04;;;;;;;9.83;5.03;;;16.80;85.30;;;;;;5029526;28;20195;-73
2022/10/18 04:27:30;;;;;;;9.90;4.90;;;16.80;85.20;;;;;;5026451;28;20216;-72
2022/10/18 04:29:55;;;;;;;8.03;4.27;;;16.80;85.20;;;;;;5030698;28;20425;-71
2022/10/18 04:32:21;;;;;;;11.47;4.83;;;16.80;85.30;;;;;;5034475;28;20226;-72
2022/10/18 04:34:46;;;;;;;13.90;5.23;;;16.80;85.30;;;;;;5035977;28;20182;-71
2022/10/18 04:37:12;;;;;;;9.40;4.40;;;16.80;85.00;;;;;;5032600;28;20295;-73
2022/10/18 04:39:37;;;;;;;10.97;5.53;;;16.80;85.00;;;;;;5029521;28;20578;-74
2022/10/18 04:42:03;;;;;;;6.93;4.40;;;16.90;85.00;;;;;;5029833;28;20197;-72
2022/10/18 04:44:29;;;;;;;6.07;4.70;;;16.90;84.90;;;;;;5028069;28;20228;-74
2022/10/18 04:46:54;;;;;;;8.53;4.93;;;17.00;84.40;;;;;;5026317;28;20258;-71
2022/10/18 04:49:20;;;;;;;10.33;5.23;;;17.10;83.80;;;;;;5030000;28;20224;-72
2022/10/18 04:51:45;;;;;;;7.97;5.07;;;17.40;83.00;;;;;;5029110;28;20247;-71
2022/10/18 04:54:11;;;;;;;7.20;4.40;;;17.50;82.20;;;;;;5029403;28;20554;-70
2022/10/18 04:56:37;;;;;;;10.97;4.00;;;17.70;81.40;;;;;;5027092;28;20202;-72
2022/10/18 04:59:02;;;;;;;8.73;4.13;;;18.00;79.90;;;;;;5030792;28;20333;-72
2022/10/18 05:01:28;;;;;;;10.70;5.13;;;18.30;78.90;;;;;;5029679;28;20425;-73
2022/10/18 05:03:54;;;;;;;12.30;4.70;;;18.40;78.90;;;;;;5031200;28;20228;-71
2022/10/18 05:06:21;;;;;;;12.90;4.80;;;18.10;79.70;;;;;;5027726;28;20218;-72
2022/10/18 05:08:46;;;;;;;8.70;4.67;;;17.90;80.90;;;;;;5030074;28;20249;-72
2022/10/18 05:11:12;;;;;;;10.27;4.97;;;17.90;80.80;;;;;;5028462;28;20452;-69
2022/10/18 05:13:38;;;;;;;16.80;5.63;;;17.90;80.60;;;;;;5023746;28;20188;-71
2022/10/18 05:16:04;;;;;;;11.30;4.73;;;17.90;80.60;;;;;;5028024;28;20182;-70
2022/10/18 05:18:29;;;;;;;7.20;5.37;;;17.90;80.90;;;;;;5029059;28;20185;-69
2022/10/18 05:20:55;;;;;;;9.00;5.23;;;17.90;80.60;;;;;;5028601;28;21001;-72
2022/10/18 05:23:21;;;;;;;7.53;4.47;;;17.90;80.60;;;;;;5028274;28;20658;-70
2022/10/18 05:25:46;;;;;;;10.13;4.50;;;18.00;80.00;;;;;;5030901;28;20335;-73
2022/10/18 05:28:12;;;;;;;8.50;4.50;;;18.10;79.60;;;;;;5028052;28;20213;-71
2022/10/18 05:30:39;;;;;;;7.23;4.80;;;18.10;79.30;;;;;;5030869;28;20212;-72
2022/10/18 05:33:05;;;;;;;9.47;4.77;;;18.20;79.20;;;;;;5030038;28;20429;-72
2022/10/18 05:35:31;;;;;;;10.20;4.50;;;18.30;78.90;;;;;;5030708;28;20433;-70
2022/10/18 05:37:56;;;;;;;8.90;4.27;;;18.30;78.90;;;;;;5027613;28;20464;-71
2022/10/18 05:40:22;;;;;;;9.77;4.43;;;18.30;78.70;;;;;;5033043;28;20552;-72
2022/10/18 05:42:51;;;;;;;10.20;4.90;;;18.30;78.60;;;;;;5030573;28;20231;-72
2022/10/18 05:45:16;;;;;;;7.43;4.50;;;18.40;78.30;;;;;;5030808;28;20229;-71
2022/10/18 05:47:42;;;;;;;7.90;4.67;;;18.40;78.10;;;;;;5025655;28;20519;-72
2022/10/18 05:50:08;;;;;;;8.13;4.90;;;18.50;77.80;;;;;;5029531;28;20213;-71
2022/10/18 05:52:33;;;;;;;9.43;4.60;;;18.40;77.80;;;;;;5029554;28;20586;-70
2022/10/18 05:55:00;;;;;;;14.80;4.87;;;18.50;77.80;;;;;;5029691;28;20425;-70
2022/10/18 05:57:25;;;;;;;10.77;4.10;;;18.50;77.40;;;;;;5026141;28;20211;-69
2022/10/18 05:59:51;;;;;;;8.47;4.60;;;18.50;77.40;;;;;;5029368;28;20499;-71
2022/10/18 06:02:16;;;;;;;6.90;4.43;;;18.60;77.40;;;;;;5027962;28;20329;-72
2022/10/18 06:04:42;;;;;;;7.10;5.10;;;18.50;77.40;;;;;;5033087;28;20188;-72
2022/10/18 06:07:11;;;;;;;8.10;4.40;;;18.60;77.40;;;;;;5028952;28;20264;-72
2022/10/18 06:09:37;;;;;;;8.73;4.50;;;18.60;77.40;;;;;;5032111;28;20553;-71
2022/10/18 06:12:03;;;;;;;7.03;4.60;;;18.50;77.80;;;;;;5033063;28;20425;-71
2022/10/18 06:14:29;;;;;;;9.60;4.87;;;18.50;78.00;;;;;;5030271;28;20422;-71
2022/10/18 06:16:55;;;;;;;10.20;5.50;;;18.50;78.00;;;;;;5028843;28;20472;-71
2022/10/18 06:19:22;;;;;;;9.87;4.27;;;18.50;78.00;;;;;;5033540;28;20190;-70
2022/10/18 06:21:47;;;;;;;7.83;4.30;;;18.50;77.80;;;;;;5032618;28;20433;-70
2022/10/18 06:24:13;;;;;;;9.70;5.30;;;18.50;78.00;;;;;;5033579;28;20520;-70
2022/10/18 06:26:38;;;;;;;8.67;5.43;;;18.60;77.40;;;;;;5029232;28;20814;-72
2022/10/18 06:29:04;;;;;;;7.33;3.90;;;18.60;77.40;;;;;;5032802;28;20309;-72
2022/10/18 06:31:30;;;;;;;10.83;4.67;;;18.80;77.00;;;;;;5035864;28;20187;-72
2022/10/18 06:33:59;;;;;;;7.87;4.57;;;18.80;77.00;;;;;;5036443;28;20297;-72
2022/10/18 06:36:25;;;;;;;9.90;4.50;;;18.90;76.70;;;;;;5029803;28;20207;-72
2022/10/18 06:38:52;;;;;;;9.23;5.10;;;19.00;76.40;;;;;;5030591;28;20947;-71
2022/10/18 06:41:23;;;;;;;6.37;4.27;;;19.00;76.40;;;;;;5028479;28;20296;-74
2022/10/18 06:43:50;;;;;;;7.63;4.57;;;19.10;76.20;;;;;;5028162;28;20424;-70
2022/10/18 06:46:16;;;;;;;6.03;4.17;;;19.10;75.90;;;;;;5025149;28;20808;-70
2022/10/18 06:48:41;;;;;;;10.07;4.87;;;19.10;76.10;;;;;;5031602;28;20465;-71
2022/10/18 06:51:07;;;;;;;6.60;4.30;;;19.20;75.80;;;;;;5026331;28;20657;-71
2022/10/18 06:53:38;;;;;;;5.33;3.90;;;19.30;75.80;;;;;;5030492;28;20203;-69
2022/10/18 06:56:06;;;;;;;8.00;4.40;;;19.30;75.70;;;;;;5030653;28;20445;-69
2022/10/18 06:58:32;;;;;;;7.50;3.90;;;19.30;75.80;;;;;;5030048;28;20438;-72
2022/10/18 07:00:58;;;;;;;12.83;4.30;;;19.30;75.70;;;;;;5032010;28;20454;-70
2022/10/18 07:03:25;;;;;;;10.63;5.37;;;19.30;75.70;;;;;;5028941;28;20491;-70
2022/10/18 07:05:50;;;;;;;8.63;4.60;;;19.40;75.40;;;;;;5024003;28;20845;-70
2022/10/18 07:08:16;;;;;;;7.10;4.50;;;19.40;75.20;;;;;;5028312;28;20507;-70
2022/10/18 07:10:42;;;;;;;11.23;4.50;;;19.40;75.50;;;;;;5031807;28;21010;-72
2022/10/18 07:13:08;;;;;;;8.23;4.53;;;19.40;75.20;;;;;;5031325;28;20261;-72
2022/10/18 07:15:37;;;;;;;8.83;5.20;;;19.50;75.20;;;;;;5030221;28;20605;-71
2022/10/18 07:18:03;;;;;;;6.77;4.33;;;19.50;75.10;;;;;;5030638;28;20240;-70
2022/10/18 07:20:28;;;;;;;7.50;4.10;;;19.50;75.40;;;;;;5033986;28;20424;-72
2022/10/18 07:22:58;;;;;;;9.37;4.90;;;19.50;75.20;;;;;;5032306;28;20658;-73
2022/10/18 07:25:23;;;;;;;9.70;4.10;;;19.50;75.10;;;;;;5031566;28;20185;-70
2022/10/18 07:27:49;;;;;;;7.10;4.33;;;19.60;74.80;;;;;;5027916;28;20475;-73
2022/10/18 07:30:14;;;;;;;9.10;4.70;;;19.60;74.80;;;;;;5031888;28;20174;-71
2022/10/18 07:32:40;;;;;;;8.97;4.23;;;19.60;74.90;;;;;;5029401;28;20667;-70
2022/10/18 07:35:06;;;;;;;7.50;4.43;;;19.60;74.90;;;;;;5029586;28;20184;-72
2022/10/18 07:37:31;;;;;;;8.33;3.90;;;19.60;74.80;;;;;;5028305;28;20209;-72
2022/10/18 07:39:57;;;;;;;7.30;4.53;;;19.70;74.80;;;;;;5031430;28;20190;-72
2022/10/18 07:42:22;;;;;;;8.20;4.40;;;19.70;74.60;;;;;;5030402;28;20228;-70
2022/10/18 07:44:48;;;;;;;8.97;4.53;;;19.80;74.50;;;;;;5041972;28;20176;-71
2022/10/18 07:47:14;;;;;;;5.93;3.80;;;19.80;74.20;;;;;;5027557;28;20609;-72
2022/10/18 07:49:39;;;;;;;6.70;4.20;;;19.90;74.30;;;;;;5029813;28;20676;-72
2022/10/18 07:52:05;;;;;;;6.77;4.40;;;19.90;74.00;;;;;;5035250;28;20178;-71
2022/10/18 07:54:30;;;;;;;6.70;3.87;;;20.00;73.70;;;;;;5039139;28;20178;-71
2022/10/18 07:56:56;;;;;;;7.23;4.10;;;20.00;73.70;;;;;;5031115;28;20241;-71
2022/10/18 07:59:22;;;;;;;7.00;4.03;;;20.00;73.90;;;;;;5041382;28;20400;-71
2022/10/18 08:01:47;;;;;;;7.23;4.77;;;20.20;73.50;;;;;;5044744;28;20205;-72
2022/10/18 08:04:13;;;;;;;7.90;4.80;;;20.20;73.20;;;;;;5044093;28;20190;-71
2022/10/18 08:06:38;;;;;;;10.90;4.27;;;20.30;73.20;;;;;;5040763;28;20213;-71
2022/10/18 08:09:04;;;;;;;6.80;4.70;;;20.30;73.00;;;;;;5041829;28;20213;-73
2022/10/18 08:11:30;;;;;;;8.43;5.03;;;20.30;73.30;;;;;;5039791;28;20181;-73
2022/10/18 08:13:55;;;;;;;8.60;4.90;;;20.40;73.00;;;;;;5043635;28;20250;-71
2022/10/18 08:16:24;;;;;;;11.53;5.50;;;20.40;73.00;;;;;;5039704;28;20379;-70
2022/10/18 08:18:50;;;;;;;7.53;4.73;;;20.40;72.90;;;;;;5043957;28;20269;-71
2022/10/18 08:21:17;;;;;;;8.37;4.60;;;20.50;73.20;;;;;;5041525;28;20429;-70
2022/10/18 08:23:43;;;;;;;7.60;3.90;;;20.40;73.20;;;;;;5041238;28;20194;-71
2022/10/18 08:26:11;;;;;;;12.07;5.37;;;20.40;73.00;;;;;;5033418;28;20460;-70
2022/10/18 08:28:37;;;;;;;7.80;5.10;;;20.50;73.20;;;;;;5038937;28;20222;-71
2022/10/18 08:31:05;;;;;;;9.20;4.87;;;20.50;73.20;;;;;;5040218;28;20425;-71
2022/10/18 08:33:32;;;;;;;5.80;4.60;;;20.60;73.00;;;;;;5040648;28;20420;-72
2022/10/18 08:36:00;;;;;;;9.27;4.40;;;20.50;73.00;;;;;;5038643;28;20421;-74
2022/10/18 08:38:30;;;;;;;7.50;4.40;;;20.50;72.90;;;;;;5032244;28;20456;-71
2022/10/18 08:40:57;;;;;;;8.20;4.73;;;20.40;73.20;;;;;;5035111;28;20444;-71
2022/10/18 08:43:41;;;;;;;7.20;5.17;;;20.30;73.50;;;;;;5036079;28;20455;-70
2022/10/18 08:46:11;;;;;;;10.90;4.80;;;20.40;73.60;;;;;;5032673;28;20416;-70
2022/10/18 08:48:42;;;;;;;7.10;4.60;;;20.40;73.60;;;;;;5036311;28;20464;-71
2022/10/18 08:51:28;;;;;;;8.43;4.30;;;20.40;73.50;;;;;;5030502;28;20417;-72
2022/10/18 08:54:14;;;;;;;7.03;4.30;;;20.40;73.60;;;;;;5024564;28;20429;-72
2022/10/18 08:56:46;;;;;;;9.17;4.83;;;20.50;73.50;;;;;;5028485;28;20453;-71
2022/10/18 08:59:12;;;;;;;7.47;4.90;;;20.50;73.60;;;;;;5028325;28;20432;-72
2022/10/18 09:01:57;;;;;;;5.63;4.43;;;20.60;73.20;;;;;;5030876;28;21035;-74
2022/10/18 09:04:46;;;;;;;7.53;5.03;;;20.70;73.30;;;;;;5027106;28;20524;-71
2022/10/18 09:08:11;;;;;;;6.90;4.23;;;20.70;72.70;;;;;;4998391;28;20548;-72
2022/10/18 09:11:02;;;;;;;11.33;5.27;;;20.60;73.00;;;;;;4954908;29;21072;-71
2022/10/18 09:13:30;;;;;;;7.00;4.27;;;20.70;73.20;;;;;;4949684;29;20980;-72
2022/10/18 09:16:00;;;;;;;8.63;4.20;;;20.80;73.20;;;;;;4933349;29;20434;-72
2022/10/18 09:18:47;;;;;;;7.03;4.60;;;20.90;73.00;;;;;;4947426;28;20436;-71
2022/10/18 09:21:37;;;;;;;8.90;4.83;;;21.00;72.40;;;;;;4938807;29;20963;-71
2022/10/18 09:24:17;;;;;;;7.10;4.47;;;21.10;72.10;;;;;;4949414;29;20425;-71
2022/10/18 09:26:46;;;;;;;8.20;4.40;;;21.10;71.60;;;;;;4948765;28;20461;-73
2022/10/18 09:29:53;;;;;;;11.30;5.07;;;21.20;71.00;;;;;;4949958;29;20483;-72
2022/10/18 09:32:25;;;;;;;13.37;4.33;;;21.30;71.00;;;;;;4927471;29;20434;-72
2022/10/18 09:35:04;;;;;;;7.87;4.97;;;21.50;70.20;;;;;;4930658;29;20455;-70
2022/10/18 09:37:32;;;;;;;7.20;4.40;;;21.50;70.20;;;;;;4924852;29;20512;-71
2022/10/18 09:40:19;;;;;;;6.90;4.33;;;21.70;69.80;;;;;;4930341;29;20503;-71
2022/10/18 09:42:58;;;;;;;7.40;4.10;;;21.80;68.60;;;;;;4977256;28;20464;-72
2022/10/18 09:45:26;;;;;;;15.20;5.27;;;21.70;69.40;;;;;;4983375;28;21000;-71
2022/10/18 09:48:13;;;;;;;11.63;6.13;;;21.20;73.20;;;;;;4984412;28;20519;-71
2022/10/18 09:50:43;;;;;;;11.20;5.63;;;20.50;76.10;;;;;;4988854;28;20514;-72
2022/10/18 09:53:10;;;;;;;8.43;5.50;;;20.30;77.00;;;;;;4988201;28;20454;-71
2022/10/18 09:56:00;;;;;;;10.63;5.50;;;20.40;76.50;;;;;;4982541;28;20961;-71
2022/10/18 09:58:38;;;;;;;10.73;5.20;;;20.40;75.90;;;;;;4984926;28;20438;-71
2022/10/18 10:01:05;;;;;;;11.67;5.80;;;20.30;76.10;;;;;;4988518;28;20424;-72
2022/10/18 10:03:33;;;;;;;11.57;5.17;;;20.20;76.50;;;;;;4975797;28;20501;-72
2022/10/18 10:06:11;;;;;;;11.03;5.47;;;20.20;76.50;;;;;;4980054;28;21020;-72
2022/10/18 10:08:41;;;;;;;8.03;4.67;;;20.30;76.40;;;;;;4984378;28;20472;-72
2022/10/18 10:11:45;;;;;;;10.33;5.43;;;20.40;75.90;;;;;;5029484;28;20962;-72
2022/10/18 10:14:26;;;;;;;7.77;4.83;;;20.50;75.70;;;;;;5027447;28;20931;-71
2022/10/18 10:17:19;;;;;;;10.33;5.43;;;20.60;75.90;;;;;;5024531;28;20481;-72
2022/10/18 10:20:16;;;;;;;8.90;4.90;;;20.70;75.50;;;;;;5029277;28;20437;-71
2022/10/18 10:22:43;;;;;;;8.13;5.07;;;20.80;75.40;;;;;;5030534;28;20419;-72
2022/10/18 10:25:30;;;;;;;11.17;5.90;;;21.00;74.90;;;;;;5033602;28;20943;-73
2022/10/18 10:28:05;;;;;;;8.63;4.80;;;21.20;73.90;;;;;;5031807;28;20479;-72
2022/10/18 10:30:36;;;;;;;15.17;5.40;;;21.60;73.00;;;;;;5033953;28;20430;-72
2022/10/18 10:33:02;;;;;;;12.37;5.93;;;21.90;71.10;;;;;;5024022;28;20442;-71
2022/10/18 10:35:34;;;;;;;10.73;5.27;;;22.30;69.80;;;;;;5029065;28;20414;-73
2022/10/18 10:38:01;;;;;;;10.60;5.83;;;22.50;69.70;;;;;;5022943;28;20556;-71
2022/10/18 10:40:33;;;;;;;6.73;4.73;;;22.80;68.20;;;;;;5028796;28;20434;-71
2022/10/18 10:43:04;;;;;;;11.10;5.53;;;22.40;69.50;;;;;;5028260;28;20484;-72
2022/10/18 10:45:54;;;;;;;11.00;5.20;;;21.90;71.00;;;;;;5028327;28;20974;-71
2022/10/18 10:48:20;;;;;;;11.60;5.53;;;21.90;71.00;;;;;;5025306;28;20839;-72
2022/10/18 10:51:08;;;;;;;12.13;6.17;;;21.70;71.70;;;;;;5029891;28;20433;-71
2022/10/18 10:53:57;;;;;;;14.80;5.50;;;21.70;72.00;;;;;;5037905;28;20429;-70
2022/10/18 10:56:26;;;;;;;10.40;5.20;;;21.50;72.40;;;;;;5039300;28;20803;-71
2022/10/18 10:58:54;;;;;;;7.73;4.63;;;21.80;72.00;;;;;;5037762;28;20413;-72
2022/10/18 11:01:40;;;;;;;10.60;5.00;;;22.40;71.10;;;;;;5038974;28;20439;-71
2022/10/18 11:04:29;;;;;;;10.80;5.80;;;23.10;69.20;;;;;;5038427;28;20412;-71
2022/10/18 11:07:12;;;;;;;8.37;5.27;;;23.20;67.20;;;;;;5031417;28;20986;-71
2022/10/18 11:09:42;;;;;;;6.90;5.30;;;22.60;69.10;;;;;;5036089;28;20557;-70
2022/10/18 11:13:01;;;;;;;7.60;5.00;;;22.60;69.40;;;;;;5029984;28;20718;-71
2022/10/18 11:15:46;;;;;;;12.80;5.23;;;22.50;70.20;;;;;;5026484;28;21254;-72
2022/10/18 11:18:24;;;;;;;7.23;5.40;;;22.50;69.70;;;;;;5026513;28;20477;-72
2022/10/18 11:21:00;;;;;;;11.70;5.47;;;22.10;71.00;;;;;;5027106;28;20413;-70
2022/10/18 11:23:30;;;;;;;12.53;5.70;;;22.40;70.80;;;;;;5031441;28;20826;-73
2022/10/18 11:26:11;;;;;;;15.67;5.60;;;22.50;70.20;;;;;;5031673;28;20882;-72
2022/10/18 11:29:04;;;;;;;9.23;5.50;;;22.80;69.80;;;;;;5030345;28;20905;-69
2022/10/18 11:31:52;;;;;;;7.83;5.70;;;23.00;69.50;;;;;;5030186;28;20427;-71
2022/10/18 11:34:27;;;;;;;12.13;5.40;;;23.10;68.90;;;;;;5027493;28;20422;-71
2022/10/18 11:37:17;;;;;;;9.07;4.70;;;23.30;68.80;;;;;;5029365;28;20935;-73
2022/10/18 11:40:36;;;;;;;10.70;5.30;;;23.60;68.30;;;;;;5032152;28;20411;-74
2022/10/18 11:43:16;;;;;;;11.43;5.23;;;24.00;67.30;;;;;;4991428;28;20487;-70
2022/10/18 11:46:07;;;;;;;14.50;6.13;;;24.20;66.70;;;;;;4989193;28;20426;-71
2022/10/18 11:48:47;;;;;;;9.37;5.53;;;23.90;66.10;;;;;;4952031;28;20547;-70
2022/10/18 11:52:00;;;;;;;11.07;6.17;;;23.10;68.00;;;;;;4984907;28;20415;-72
2022/10/18 11:54:44;;;;;;;6.93;4.63;;;22.80;69.10;;;;;;4985589;28;20919;-71
2022/10/18 11:57:18;;;;;;;8.60;5.03;;;23.20;69.10;;;;;;4987528;28;20522;-71
2022/10/18 12:00:00;;;;;;;8.87;4.70;;;23.90;67.50;;;;;;4989499;28;20468;-72
2022/10/18 12:02:46;;;;;;;11.07;5.30;;;24.10;67.00;;;;;;4985886;28;20416;-72
2022/10/18 12:05:13;;;;;;;13.10;4.70;;;24.70;65.10;;;;;;4983443;28;20436;-72
2022/10/18 12:07:50;;;;;;;10.50;5.70;;;24.80;64.10;;;;;;4986917;28;20467;-72
2022/10/18 12:10:19;;;;;;;10.83;5.47;;;24.80;64.20;;;;;;4988799;28;20422;-72
2022/10/18 12:12:50;;;;;;;7.77;4.70;;;24.20;65.70;;;;;;4995109;28;20467;-72
2022/10/18 12:15:22;;;;;;;6.70;4.90;;;24.10;66.90;;;;;;5028554;28;20413;-71
2022/10/18 12:17:52;;;;;;;7.20;4.97;;;24.30;66.40;;;;;;5028598;28;20480;-71
2022/10/18 12:20:53;;;;;;;13.00;5.40;;;24.50;66.40;;;;;;5028488;28;20469;-73
2022/10/18 12:23:41;;;;;;;9.30;5.27;;;24.50;65.00;;;;;;5034160;28;20970;-71
2022/10/18 12:26:09;;;;;;;7.43;4.60;;;23.80;67.00;;;;;;5025322;28;20415;-70
2022/10/18 12:28:49;;;;;;;7.27;4.67;;;23.60;67.90;;;;;;5024442;28;20817;-72
2022/10/18 12:31:33;;;;;;;3.40;2.80;;;22.90;68.50;;;;;;5029988;28;20485;-71
2022/10/18 12:34:16;;;;;;;6.27;3.07;;;22.30;69.40;;;;;;5020004;28;20413;-72
2022/10/18 12:37:05;;;;;;;7.40;3.30;;;22.10;71.10;;;;;;5028477;28;20472;-71
2022/10/18 12:39:40;;;;;;;5.43;3.70;;;22.00;72.30;;;;;;5034011;28;20419;-70
2022/10/18 12:42:19;;;;;;;5.63;3.80;;;21.80;73.20;;;;;;5034338;28;20458;-71
2022/10/18 12:44:46;;;;;;;5.40;3.70;;;21.90;72.60;;;;;;5032985;28;20421;-71
2022/10/18 12:47:23;;;;;;;6.57;3.50;;;22.10;72.70;;;;;;5027316;28;20529;-70
2022/10/18 12:50:00;;;;;;;6.63;3.07;;;22.30;71.80;;;;;;5026339;28;20461;-70
2022/10/18 12:52:29;;;;;;;6.03;3.57;;;22.80;70.10;;;;;;5030641;28;20959;-72
2022/10/18 12:55:00;;;;;;;5.47;2.87;;;22.60;69.50;;;;;;5035860;28;20998;-70
2022/10/18 12:57:51;;;;;;;5.70;3.10;;;22.00;70.80;;;;;;5026819;28;20463;-72
2022/10/18 13:00:29;;;;;;;5.97;3.43;;;22.30;70.40;;;;;;5030055;28;20771;-72
2022/10/18 13:03:15;;;;;;;3.97;2.87;;;22.40;70.50;;;;;;5024342;28;20899;-71
2022/10/18 13:05:46;;;;;;;12.20;5.00;;;22.50;70.40;;;;;;5027931;28;20950;-70